createdAt,value
2023-05-05T00:01:45.888Z,2.50
2023-05-05T00:04:28.656Z,2.30
2023-05-05T00:07:07.089Z,2.38
2023-05-05T00:10:26.341Z,2.60
2023-05-05T00:13:16.632Z,2.58
2023-05-05T00:16:00.779Z,2.30
2023-05-05T00:18:51.522Z,2.35
2023-05-05T00:21:37.835Z,2.38
2023-05-05T00:27:25.899Z,2.90
2023-05-05T00:30:22.092Z,3.40
2023-05-05T00:33:30.563Z,3.10
2023-05-05T00:35:58.853Z,3.30
2023-05-05T00:38:25.583Z,3.13
2023-05-05T00:43:38.645Z,2.30
2023-05-05T00:46:44.692Z,3.08
2023-05-05T00:53:22.460Z,2.72
2023-05-05T00:55:53.434Z,2.97
2023-05-05T00:58:23.631Z,3.53
2023-05-05T01:01:29.449Z,3.97
2023-05-05T01:04:26.470Z,3.08
2023-05-05T01:07:59.750Z,3.30
2023-05-05T01:17:20.510Z,3.28
2023-05-05T01:20:13.851Z,4.00
2023-05-05T01:23:00.367Z,3.17
2023-05-05T01:29:37.839Z,3.70
2023-05-05T01:32:48.292Z,3.33
2023-05-05T01:35:36.330Z,3.88
2023-05-05T01:38:33.227Z,4.70
2023-05-05T01:41:14.175Z,3.85
2023-05-05T01:44:03.796Z,4.03
2023-05-05T01:46:43.000Z,5.20
2023-05-05T01:55:52.540Z,4.97
2023-05-05T02:09:37.933Z,5.40
2023-05-05T02:19:10.220Z,6.13
2023-05-05T02:22:17.464Z,5.32
2023-05-05T02:31:24.789Z,5.13
2023-05-05T02:50:01.306Z,5.45
2023-05-05T03:09:18.947Z,4.47
2023-05-05T03:12:14.817Z,4.18
2023-05-05T03:31:25.107Z,3.05
2023-05-05T03:37:34.880Z,2.53
2023-05-05T04:06:59.823Z,2.17
2023-05-05T04:14:00.195Z,1.80
2023-05-05T04:39:43.865Z,1.77
2023-05-05T04:49:43.086Z,1.55
2023-05-05T04:53:32.174Z,1.63
2023-05-05T05:09:17.950Z,1.88
2023-05-05T05:12:20.849Z,1.60
2023-05-05T05:19:25.571Z,1.45
2023-05-05T05:21:52.278Z,1.52
2023-05-05T05:24:27.119Z,1.58
2023-05-05T05:26:55.248Z,1.33
2023-05-05T05:29:34.293Z,1.75
2023-05-05T05:32:03.434Z,1.40
2023-05-05T05:34:31.475Z,1.80
2023-05-05T05:37:03.803Z,1.95
2023-05-05T05:39:35.821Z,2.17
2023-05-05T05:42:12.207Z,2.00
2023-05-05T05:44:40.033Z,2.30
2023-05-05T05:47:09.861Z,2.92
2023-05-05T05:49:37.111Z,2.28
2023-05-05T05:52:03.930Z,2.70
2023-05-05T05:54:32.230Z,2.75
2023-05-05T05:56:58.892Z,2.58
2023-05-05T05:59:26.498Z,3.05
2023-05-05T06:01:53.693Z,3.03
2023-05-05T06:04:20.757Z,3.63
2023-05-05T06:06:48.357Z,3.13
2023-05-05T06:09:15.306Z,3.75
2023-05-05T06:11:44.931Z,3.40
2023-05-05T06:14:13.328Z,4.57
2023-05-05T06:16:39.961Z,4.25
2023-05-05T06:19:09.947Z,4.18
2023-05-05T06:21:38.390Z,4.10
2023-05-05T06:24:06.220Z,4.20
2023-05-05T06:26:34.140Z,4.45
2023-05-05T06:29:06.476Z,3.72
2023-05-05T06:31:56.816Z,4.57
2023-05-05T06:34:25.568Z,4.35
2023-05-05T06:37:19.621Z,4.10
2023-05-05T06:39:52.641Z,4.25
2023-05-05T06:46:07.502Z,3.45
2023-05-05T06:49:11.961Z,4.03
2023-05-05T07:02:36.902Z,2.97
2023-05-05T07:05:58.736Z,2.90
2023-05-05T07:18:37.062Z,2.50
2023-05-05T07:21:13.741Z,2.53
2023-05-05T07:26:21.216Z,2.45
2023-05-05T07:28:48.158Z,2.20
2023-05-05T07:33:55.969Z,1.63
2023-05-05T07:36:33.109Z,1.75
2023-05-05T07:39:02.109Z,2.45
2023-05-05T07:41:31.252Z,1.88
2023-05-05T07:43:57.994Z,2.05
2023-05-05T07:46:39.394Z,2.42
2023-05-05T07:49:34.744Z,2.35
2023-05-05T07:52:10.118Z,1.92
2023-05-05T07:54:40.444Z,2.50
2023-05-05T07:57:23.776Z,2.30
2023-05-05T07:59:57.694Z,2.20
2023-05-05T08:02:54.056Z,1.90
2023-05-05T08:05:42.394Z,1.90
2023-05-05T08:08:20.273Z,1.83
2023-05-05T08:10:59.410Z,2.30
2023-05-05T08:13:26.249Z,2.00
2023-05-05T08:15:53.927Z,1.85
2023-05-05T08:18:24.483Z,1.60
2023-05-05T08:20:54.795Z,1.77
2023-05-05T08:23:22.012Z,1.60
2023-05-05T08:25:49.109Z,2.65
2023-05-05T08:28:15.791Z,1.38
2023-05-05T08:30:53.412Z,1.65
2023-05-05T08:33:21.366Z,1.70
2023-05-05T08:35:49.281Z,1.90
2023-05-05T08:39:01.856Z,2.00
2023-05-05T08:41:30.613Z,1.95
2023-05-05T08:44:07.554Z,2.03
2023-05-05T08:46:38.043Z,1.42
2023-05-05T08:49:07.248Z,1.63
2023-05-05T08:51:42.548Z,1.40
2023-05-05T08:54:15.221Z,1.73
2023-05-05T08:56:42.893Z,1.15
2023-05-05T08:59:14.116Z,1.25
2023-05-05T09:01:42.731Z,1.17
2023-05-05T09:04:09.482Z,0.82
2023-05-05T09:06:37.169Z,1.20
2023-05-05T09:09:03.902Z,0.95
2023-05-05T09:11:32.278Z,0.70
2023-05-05T09:13:58.868Z,0.60
2023-05-05T09:16:25.562Z,0.55
2023-05-05T09:19:01.222Z,0.80
2023-05-05T09:21:28.118Z,0.82
2023-05-05T09:24:08.515Z,0.70
2023-05-05T09:26:37.778Z,0.80
2023-05-05T09:29:04.958Z,0.93
2023-05-05T09:31:32.907Z,0.68
2023-05-05T09:34:04.322Z,1.13
2023-05-05T09:36:48.043Z,0.75
2023-05-05T09:39:17.286Z,1.35
2023-05-05T09:41:44.407Z,0.80
2023-05-05T09:44:12.540Z,1.10
2023-05-05T09:46:51.111Z,1.00
2023-05-05T09:49:20.575Z,0.90
2023-05-05T09:51:48.110Z,1.45
2023-05-05T09:54:28.921Z,0.88
2023-05-05T09:56:56.821Z,0.93
2023-05-05T09:59:23.975Z,0.85
2023-05-05T10:01:51.598Z,0.70
2023-05-05T10:04:29.688Z,1.25
2023-05-05T10:06:57.697Z,1.40
2023-05-05T10:09:25.881Z,1.15
2023-05-05T10:11:53.202Z,1.40
2023-05-05T10:14:20.150Z,1.40
2023-05-05T10:16:48.651Z,1.60
2023-05-05T10:19:16.817Z,1.70
2023-05-05T10:21:49.774Z,2.40
2023-05-05T10:24:39.874Z,2.63
2023-05-05T10:27:16.665Z,1.90
2023-05-05T10:29:48.939Z,2.00
2023-05-05T10:32:50.142Z,2.05
2023-05-05T10:35:20.800Z,1.80
2023-05-05T10:37:48.142Z,1.80
2023-05-05T10:40:16.067Z,1.65
2023-05-05T10:42:43.601Z,1.33
2023-05-05T10:45:10.268Z,1.50
2023-05-05T10:47:38.237Z,1.30
2023-05-05T10:50:13.683Z,1.40
2023-05-05T10:53:15.496Z,1.50
2023-05-05T10:55:52.329Z,1.20
2023-05-05T10:58:55.348Z,1.15
2023-05-05T11:01:33.001Z,1.25
2023-05-05T11:04:19.630Z,1.02
2023-05-05T11:07:08.775Z,1.08
2023-05-05T11:09:55.049Z,1.67
2023-05-05T11:12:21.975Z,1.20
2023-05-05T11:15:08.480Z,1.35
2023-05-05T11:17:46.537Z,1.55
2023-05-05T11:20:13.275Z,1.10
2023-05-05T11:23:03.021Z,1.60
2023-05-05T11:25:42.156Z,2.10
2023-05-05T11:28:11.451Z,1.80
2023-05-05T11:31:00.820Z,2.00
2023-05-05T11:33:33.160Z,1.50
2023-05-05T11:36:01.331Z,1.60
2023-05-05T11:38:47.620Z,1.10
2023-05-05T11:43:41.832Z,1.30
2023-05-05T11:46:16.940Z,2.33
2023-05-05T11:48:46.060Z,2.40
2023-05-05T11:51:13.690Z,1.85
2023-05-05T11:53:47.442Z,1.80
2023-05-05T11:56:20.509Z,2.10
2023-05-05T11:59:04.813Z,2.42
2023-05-05T12:01:31.623Z,2.35
2023-05-05T12:03:58.522Z,1.98
2023-05-05T12:06:26.080Z,2.80
2023-05-05T12:08:52.635Z,2.80
2023-05-05T12:11:19.195Z,2.90
2023-05-05T12:13:46.437Z,2.50
2023-05-05T12:16:15.024Z,2.78
2023-05-05T12:18:42.733Z,2.42
2023-05-05T12:21:19.642Z,2.83
2023-05-05T12:23:46.609Z,2.75
2023-05-05T12:26:29.406Z,2.92
2023-05-05T12:28:57.253Z,3.40
2023-05-05T12:31:34.494Z,2.75
2023-05-05T12:34:01.935Z,3.35
2023-05-05T12:36:30.631Z,3.53
2023-05-05T12:38:58.256Z,4.30
2023-05-05T12:41:25.069Z,4.25
2023-05-05T12:43:56.748Z,4.03
2023-05-05T12:46:23.660Z,3.95
2023-05-05T12:49:01.553Z,4.00
2023-05-05T12:51:28.168Z,4.32
2023-05-05T12:54:09.873Z,4.35
2023-05-05T12:56:41.455Z,4.15
2023-05-05T12:59:10.432Z,4.53
2023-05-05T13:01:58.051Z,4.63
2023-05-05T13:04:27.326Z,3.92
2023-05-05T13:07:16.878Z,3.38
2023-05-05T13:09:43.906Z,4.20
2023-05-05T13:12:12.470Z,5.20
2023-05-05T13:14:40.902Z,3.95
2023-05-05T13:17:07.950Z,4.65
2023-05-05T13:19:42.094Z,4.07
2023-05-05T13:22:10.106Z,4.47
2023-05-05T13:24:49.966Z,3.80
2023-05-05T13:27:17.800Z,3.95
2023-05-05T13:29:44.393Z,3.35
2023-05-05T13:32:10.983Z,3.53
2023-05-05T13:34:39.203Z,4.00
2023-05-05T13:37:06.158Z,3.70
2023-05-05T13:39:32.779Z,4.00
2023-05-05T13:41:59.312Z,4.18
2023-05-05T13:44:25.864Z,4.03
2023-05-05T13:46:52.550Z,3.83
2023-05-05T13:49:20.123Z,3.60
2023-05-05T13:51:47.142Z,4.50
2023-05-05T13:54:13.958Z,4.47
2023-05-05T13:56:40.609Z,4.00
2023-05-05T13:59:07.212Z,4.07
2023-05-05T14:01:33.855Z,3.85
2023-05-05T14:04:02.762Z,3.95
2023-05-05T14:06:31.305Z,3.55
2023-05-05T14:08:57.897Z,3.78
2023-05-05T14:11:24.423Z,3.42
2023-05-05T14:13:52.059Z,3.25
2023-05-05T14:16:18.871Z,3.40
2023-05-05T14:18:45.678Z,2.95
2023-05-05T14:21:12.351Z,2.40
2023-05-05T14:23:38.914Z,2.03
2023-05-05T14:26:05.589Z,3.25
2023-05-05T14:28:32.262Z,2.05
2023-05-05T14:30:58.872Z,2.25
2023-05-05T14:33:25.527Z,2.10
2023-05-05T14:35:52.240Z,2.15
2023-05-05T14:38:18.828Z,2.03
2023-05-05T14:40:45.423Z,2.03
2023-05-05T14:43:12.049Z,2.50
2023-05-05T14:45:38.684Z,2.03
2023-05-05T14:48:05.430Z,2.13
2023-05-05T14:50:32.051Z,2.10
2023-05-05T14:52:58.637Z,1.95
2023-05-05T14:55:25.279Z,1.80
2023-05-05T14:57:52.117Z,1.98
2023-05-05T15:00:18.915Z,2.15
2023-05-05T15:02:45.640Z,1.85
2023-05-05T15:05:12.377Z,2.60
2023-05-05T15:07:40.144Z,1.27
2023-05-05T15:10:07.648Z,1.63
2023-05-05T15:12:34.408Z,1.65
2023-05-05T15:15:01.086Z,1.70
2023-05-05T15:17:27.737Z,1.50
2023-05-05T15:19:54.314Z,1.45
2023-05-05T15:22:20.853Z,1.40
2023-05-05T15:24:47.397Z,1.15
2023-05-05T15:27:14.013Z,1.10
2023-05-05T15:29:40.553Z,1.30
2023-05-05T15:32:07.296Z,1.10
2023-05-05T15:34:34.036Z,1.10
2023-05-05T15:37:00.672Z,1.30
2023-05-05T15:39:27.192Z,1.50
2023-05-05T15:41:53.765Z,1.55
2023-05-05T15:44:20.316Z,1.30
2023-05-05T15:46:48.342Z,1.08
2023-05-05T15:49:16.914Z,1.52
2023-05-05T15:51:43.486Z,1.20
2023-05-05T15:54:10.176Z,1.50
2023-05-05T15:56:36.939Z,1.33
2023-05-05T15:59:03.639Z,1.35
2023-05-05T16:01:30.336Z,1.33
2023-05-05T16:03:57.908Z,1.75
2023-05-05T16:06:24.572Z,1.10
2023-05-05T16:08:51.795Z,1.20
2023-05-05T16:11:22.335Z,1.17
2023-05-05T16:13:49.082Z,1.17
2023-05-05T16:16:15.727Z,1.00
2023-05-05T16:18:42.278Z,1.30
2023-05-05T16:21:09.156Z,0.73
2023-05-05T16:23:35.879Z,1.00
2023-05-05T16:26:04.060Z,0.52
2023-05-05T16:28:30.948Z,0.68
2023-05-05T16:30:57.575Z,0.40
2023-05-05T16:33:24.634Z,0.90
2023-05-05T16:35:51.154Z,0.40
2023-05-05T16:38:17.737Z,0.40
2023-05-05T16:40:44.358Z,0.68
2023-05-05T16:43:10.997Z,0.40
2023-05-05T16:45:37.631Z,0.43
2023-05-05T16:48:06.198Z,0.50
2023-05-05T16:50:34.808Z,1.10
2023-05-05T16:53:01.570Z,0.40
2023-05-05T16:55:28.190Z,0.50
2023-05-05T16:57:54.738Z,0.70
2023-05-05T17:00:21.306Z,0.52
2023-05-05T17:02:47.994Z,0.63
2023-05-05T17:05:14.755Z,0.80
2023-05-05T17:07:41.313Z,0.60
2023-05-05T17:10:08.457Z,0.60
2023-05-05T17:12:35.086Z,0.77
2023-05-05T17:15:02.325Z,0.82
2023-05-05T17:17:28.925Z,0.68
2023-05-05T17:19:56.213Z,0.70
2023-05-05T17:22:22.815Z,0.60
2023-05-05T17:24:49.403Z,0.65
2023-05-05T17:27:16.036Z,0.65
2023-05-05T17:29:42.620Z,0.63
2023-05-05T17:32:09.456Z,0.80
2023-05-05T17:34:36.398Z,0.77
2023-05-05T17:37:03.114Z,0.90
2023-05-05T17:39:30.055Z,1.10
2023-05-05T17:41:56.635Z,1.17
2023-05-05T17:44:23.234Z,1.05
2023-05-05T17:46:50.007Z,1.63
2023-05-05T17:49:16.672Z,1.17
2023-05-05T17:51:43.282Z,1.20
2023-05-05T17:54:09.854Z,1.00
2023-05-05T17:56:37.454Z,1.08
2023-05-05T17:59:04.049Z,1.08
2023-05-05T18:01:30.675Z,1.10
2023-05-05T18:03:57.480Z,1.27
2023-05-05T18:06:24.063Z,1.20
2023-05-05T18:08:50.856Z,1.08
2023-05-05T18:11:19.313Z,1.30
2023-05-05T18:13:45.953Z,1.65
2023-05-05T18:16:12.571Z,1.30
2023-05-05T18:18:41.198Z,1.42
2023-05-05T18:21:12.084Z,1.40
2023-05-05T18:23:39.835Z,1.33
2023-05-05T18:26:07.103Z,1.60
2023-05-05T18:28:33.744Z,1.50
2023-05-05T18:31:00.396Z,1.40
2023-05-05T18:33:27.053Z,1.73
2023-05-05T18:35:53.706Z,1.20
2023-05-05T18:38:20.282Z,1.58
2023-05-05T18:40:46.934Z,1.10
2023-05-05T18:43:13.543Z,1.20
2023-05-05T18:45:40.268Z,1.00
2023-05-05T18:48:07.048Z,1.00
2023-05-05T18:50:33.671Z,1.10
2023-05-05T18:53:00.243Z,0.77
2023-05-05T18:55:26.789Z,1.02
2023-05-05T18:57:53.429Z,1.00
2023-05-05T19:00:20.768Z,1.10
2023-05-05T19:02:47.446Z,1.27
2023-05-05T19:05:14.123Z,1.30
2023-05-05T19:07:40.896Z,1.80
2023-05-05T19:10:08.459Z,1.58
2023-05-05T19:12:35.153Z,2.15
2023-05-05T19:15:01.800Z,2.30
2023-05-05T19:17:28.430Z,2.00
2023-05-05T19:19:55.112Z,2.50
2023-05-05T19:22:23.542Z,2.10
2023-05-05T19:24:50.128Z,2.30
2023-05-05T19:27:17.215Z,3.50
2023-05-05T19:29:44.282Z,6.50
2023-05-05T19:32:11.126Z,6.95
2023-05-05T19:34:37.848Z,7.10
2023-05-05T19:37:04.497Z,6.63
2023-05-05T19:39:31.323Z,6.70
2023-05-05T19:41:57.888Z,5.50
2023-05-05T19:44:24.532Z,5.82
2023-05-05T19:46:52.827Z,5.03
2023-05-05T19:49:19.763Z,4.28
2023-05-05T19:51:49.646Z,5.10
2023-05-05T19:54:16.324Z,5.30
2023-05-05T19:56:43.084Z,3.67
2023-05-05T19:59:09.681Z,3.58
2023-05-05T20:01:36.321Z,3.00
2023-05-05T20:04:05.938Z,3.30
2023-05-05T20:06:33.355Z,3.28
2023-05-05T20:09:00.539Z,5.82
2023-05-05T20:11:27.140Z,3.72
2023-05-05T20:13:54.099Z,3.83
2023-05-05T20:16:22.022Z,3.70
2023-05-05T20:18:48.722Z,3.50
2023-05-05T20:21:16.804Z,3.58
2023-05-05T20:23:44.359Z,4.22
2023-05-05T20:26:11.484Z,3.75
2023-05-05T20:28:39.756Z,4.25
2023-05-05T20:31:07.664Z,3.80
2023-05-05T20:33:34.324Z,2.80
2023-05-05T20:36:01.323Z,3.28
2023-05-05T20:38:27.927Z,3.75
2023-05-05T20:40:54.440Z,3.25
2023-05-05T20:43:21.242Z,3.22
2023-05-05T20:45:47.869Z,2.50
2023-05-05T20:48:14.436Z,2.80
2023-05-05T20:50:42.004Z,2.72
2023-05-05T20:53:09.632Z,2.78
2023-05-05T20:55:36.418Z,3.05
2023-05-05T20:58:05.265Z,2.75
2023-05-05T21:00:31.992Z,2.88
2023-05-05T21:02:58.745Z,2.63
2023-05-05T21:05:26.085Z,2.88
2023-05-05T21:07:53.630Z,3.22
2023-05-05T21:10:23.451Z,2.50
2023-05-05T21:12:50.140Z,2.60
2023-05-05T21:15:16.935Z,2.35
2023-05-05T21:17:43.627Z,2.97
2023-05-05T21:20:10.930Z,2.25
2023-05-05T21:22:37.739Z,2.70
2023-05-05T21:25:15.758Z,2.53
2023-05-05T21:27:42.426Z,2.67
2023-05-05T21:30:11.050Z,2.72
2023-05-05T21:32:38.924Z,3.03
2023-05-05T21:35:07.567Z,3.10
2023-05-05T21:37:34.518Z,3.05
2023-05-05T21:40:01.223Z,2.88
2023-05-05T21:42:30.412Z,2.80
2023-05-05T21:44:57.050Z,3.38
2023-05-05T21:47:23.654Z,2.78
2023-05-05T21:49:50.326Z,2.55
2023-05-05T21:52:17.223Z,2.45
2023-05-05T21:54:43.998Z,2.97
2023-05-05T21:57:10.646Z,2.88
2023-05-05T21:59:37.451Z,3.00
2023-05-05T22:02:04.059Z,2.53
2023-05-05T22:04:30.691Z,2.85
2023-05-05T22:06:58.182Z,3.10
2023-05-05T22:09:25.376Z,2.92
2023-05-05T22:11:52.150Z,2.65
2023-05-05T22:14:18.821Z,2.72
2023-05-05T22:16:45.521Z,3.58
2023-05-05T22:19:12.098Z,3.38
2023-05-05T22:21:38.684Z,2.35
2023-05-05T22:24:07.208Z,2.50
2023-05-05T22:26:33.910Z,2.97
2023-05-05T22:29:00.770Z,2.35
2023-05-05T22:31:27.542Z,2.70
2023-05-05T22:33:54.172Z,2.63
2023-05-05T22:36:21.769Z,2.72
2023-05-05T22:38:48.490Z,2.30
2023-05-05T22:41:15.972Z,2.85
2023-05-05T22:43:42.622Z,2.35
2023-05-05T22:46:09.134Z,3.60
2023-05-05T22:48:35.907Z,2.30
2023-05-05T22:51:03.706Z,2.88
2023-05-05T22:53:30.264Z,2.72
2023-05-05T22:55:58.383Z,2.65
2023-05-05T22:58:25.792Z,2.25
2023-05-05T23:00:52.477Z,2.65
2023-05-05T23:03:19.070Z,3.17
2023-05-05T23:05:45.666Z,2.72
2023-05-05T23:08:12.235Z,2.75
2023-05-05T23:10:38.784Z,3.53
2023-05-05T23:13:05.548Z,2.63
2023-05-05T23:15:32.096Z,3.38
2023-05-05T23:17:58.742Z,3.38
2023-05-05T23:20:25.567Z,3.53
2023-05-05T23:22:52.080Z,3.10
2023-05-05T23:25:18.812Z,3.05
2023-05-05T23:27:45.508Z,2.95
2023-05-05T23:30:12.790Z,2.95
2023-05-05T23:32:39.422Z,3.25
2023-05-05T23:35:06.496Z,3.40
2023-05-05T23:37:33.077Z,3.92
2023-05-05T23:39:59.661Z,3.72
2023-05-05T23:42:26.241Z,4.43
2023-05-05T23:44:52.834Z,3.05
2023-05-05T23:47:19.435Z,3.50
2023-05-05T23:49:46.362Z,3.92
2023-05-05T23:52:12.981Z,3.65
2023-05-05T23:54:40.131Z,3.17
2023-05-05T23:57:06.644Z,3.53
2023-05-05T23:59:33.198Z,3.78
